createdAt,value
2019-06-27T00:00:09.610Z,20.12
2019-06-27T00:01:09.686Z,20.06
2019-06-27T00:02:10.050Z,20.06
2019-06-27T00:03:09.496Z,20.12
2019-06-27T00:04:09.787Z,20.06
2019-06-27T00:05:10.226Z,20.06
2019-06-27T00:06:09.550Z,20.12
2019-06-27T00:07:09.767Z,20.06
2019-06-27T00:08:10.069Z,20.06
2019-06-27T00:09:09.476Z,20.06
2019-06-27T00:10:10.031Z,20.06
2019-06-27T00:11:09.289Z,20
2019-06-27T00:12:09.608Z,20.06
2019-06-27T00:13:09.885Z,20.06
2019-06-27T00:14:09.131Z,20
2019-06-27T00:15:09.565Z,20
2019-06-27T00:16:09.906Z,20
2019-06-27T00:17:09.181Z,19.94
2019-06-27T00:18:09.515Z,20
2019-06-27T00:19:09.817Z,20
2019-06-27T00:20:10.307Z,20
2019-06-27T00:21:09.564Z,19.94
2019-06-27T00:22:09.971Z,20
2019-06-27T00:23:09.368Z,20
2019-06-27T00:24:09.641Z,20
2019-06-27T00:25:10.115Z,19.94
2019-06-27T00:26:09.471Z,19.94
2019-06-27T00:27:09.714Z,19.94
2019-06-27T00:28:10.139Z,19.94
2019-06-27T00:29:09.437Z,19.94
2019-06-27T00:30:09.939Z,19.94
2019-06-27T00:31:09.286Z,19.94
2019-06-27T00:32:09.549Z,19.94
2019-06-27T00:33:09.956Z,19.94
2019-06-27T00:34:09.276Z,19.94
2019-06-27T00:35:09.706Z,19.94
2019-06-27T00:36:09.970Z,19.94
2019-06-27T00:37:09.259Z,19.94
2019-06-27T00:38:09.604Z,19.94
2019-06-27T00:39:09.947Z,20
2019-06-27T00:40:09.526Z,19.94
2019-06-27T00:41:09.837Z,20
2019-06-27T00:42:10.118Z,20
2019-06-27T00:43:09.704Z,19.94
2019-06-27T00:44:09.979Z,19.94
2019-06-27T00:45:09.363Z,19.94
2019-06-27T00:46:09.379Z,19.94
2019-06-27T00:47:09.653Z,20
2019-06-27T00:48:09.953Z,20
2019-06-27T00:49:09.301Z,20
2019-06-27T00:50:09.890Z,19.94
2019-06-27T00:51:09.214Z,19.94
2019-06-27T00:52:09.535Z,19.94
2019-06-27T00:53:09.838Z,19.94
2019-06-27T00:54:10.191Z,19.87
2019-06-27T00:55:09.697Z,19.94
2019-06-27T00:56:10.026Z,19.87
2019-06-27T00:57:20.337Z,19.87
2019-06-27T00:58:09.605Z,19.81
2019-06-27T00:59:09.912Z,19.81
2019-06-27T01:00:09.577Z,19.87
2019-06-27T01:01:09.623Z,19.87
2019-06-27T01:02:09.979Z,19.94
2019-06-27T01:03:09.260Z,19.94
2019-06-27T01:04:09.572Z,19.87
2019-06-27T01:05:10.144Z,19.94
2019-06-27T01:06:09.585Z,19.94
2019-06-27T01:07:09.812Z,19.94
2019-06-27T01:08:10.076Z,19.87
2019-06-27T01:09:09.483Z,19.87
2019-06-27T01:10:10.061Z,19.94
2019-06-27T01:11:09.329Z,19.87
2019-06-27T01:12:09.631Z,19.87
2019-06-27T01:13:10.019Z,19.94
2019-06-27T01:14:09.379Z,19.94
2019-06-27T01:15:09.789Z,19.94
2019-06-27T01:16:10.077Z,19.94
2019-06-27T01:17:09.395Z,19.94
2019-06-27T01:18:09.656Z,19.87
2019-06-27T01:19:10.095Z,19.87
2019-06-27T01:20:09.608Z,19.87
2019-06-27T01:21:09.878Z,19.81
2019-06-27T01:22:09.196Z,19.75
2019-06-27T01:23:09.504Z,19.75
2019-06-27T01:24:09.844Z,19.75
2019-06-27T01:25:10.275Z,19.75
2019-06-27T01:26:09.673Z,19.75
2019-06-27T01:27:09.894Z,19.75
2019-06-27T01:28:09.166Z,19.75
2019-06-27T01:29:09.496Z,19.75
2019-06-27T01:30:09.967Z,19.75
2019-06-27T01:31:09.264Z,19.81
2019-06-27T01:32:09.571Z,19.81
2019-06-27T01:33:09.792Z,19.81
2019-06-27T01:34:10.173Z,19.81
2019-06-27T01:35:10.739Z,19.75
2019-06-27T01:36:10.089Z,19.75
2019-06-27T01:37:09.332Z,19.75
2019-06-27T01:38:09.653Z,19.75
2019-06-27T01:39:10.172Z,19.75
2019-06-27T01:40:09.771Z,19.75
2019-06-27T01:41:10.105Z,19.75
2019-06-27T01:42:09.444Z,19.69
2019-06-27T01:43:09.760Z,19.75
2019-06-27T01:44:10.039Z,19.75
2019-06-27T01:45:09.564Z,19.75
2019-06-27T01:46:09.902Z,19.75
2019-06-27T01:47:09.211Z,19.81
2019-06-27T01:48:09.526Z,19.81
2019-06-27T01:49:09.855Z,19.81
2019-06-27T01:50:10.380Z,19.81
2019-06-27T01:51:09.720Z,19.81
2019-06-27T01:52:10.021Z,19.81
2019-06-27T01:53:09.299Z,19.81
2019-06-27T01:54:09.621Z,19.81
2019-06-27T01:55:10.088Z,19.81
2019-06-27T01:56:09.394Z,19.75
2019-06-27T01:57:09.671Z,19.75
2019-06-27T01:58:09.977Z,19.75
2019-06-27T01:59:09.225Z,19.69
2019-06-27T02:00:09.802Z,19.75
2019-06-27T02:01:09.795Z,19.75
2019-06-27T02:02:10.115Z,19.75
2019-06-27T02:03:09.480Z,19.75
2019-06-27T02:04:09.893Z,19.81
2019-06-27T02:05:09.417Z,19.81
2019-06-27T02:06:09.648Z,19.75
2019-06-27T02:07:09.968Z,19.75
2019-06-27T02:08:09.262Z,19.81
2019-06-27T02:09:09.763Z,19.75
2019-06-27T02:10:10.296Z,19.75
2019-06-27T02:11:09.529Z,19.75
2019-06-27T02:12:09.757Z,19.69
2019-06-27T02:13:10.023Z,19.62
2019-06-27T02:14:09.363Z,19.69
2019-06-27T02:15:09.787Z,19.62
2019-06-27T02:16:10.113Z,19.56
2019-06-27T02:17:09.396Z,19.56
2019-06-27T02:18:09.677Z,19.56
2019-06-27T02:19:09.959Z,19.56
2019-06-27T02:20:09.568Z,19.62
2019-06-27T02:21:09.932Z,19.62
2019-06-27T02:22:09.225Z,19.62
2019-06-27T02:23:09.498Z,19.62
2019-06-27T02:24:09.896Z,19.62
2019-06-27T02:25:09.343Z,19.62
2019-06-27T02:26:09.715Z,19.62
2019-06-27T02:27:10.048Z,19.62
2019-06-27T02:28:10.780Z,19.69
2019-06-27T02:29:10.043Z,19.62
2019-06-27T02:30:09.706Z,19.62
2019-06-27T02:31:10.128Z,19.62
2019-06-27T02:32:09.492Z,19.62
2019-06-27T02:33:09.767Z,19.62
2019-06-27T02:34:13.394Z,19.62
2019-06-27T02:35:09.854Z,19.62
2019-06-27T02:36:09.299Z,19.56
2019-06-27T02:37:09.635Z,19.56
2019-06-27T02:38:09.933Z,19.56
2019-06-27T02:39:09.388Z,19.56
2019-06-27T02:40:10.109Z,19.56
2019-06-27T02:41:09.437Z,19.56
2019-06-27T02:42:09.750Z,19.5
2019-06-27T02:43:10.070Z,19.5
2019-06-27T02:44:09.642Z,19.5
2019-06-27T02:45:10.113Z,19.5
2019-06-27T02:46:09.495Z,19.5
2019-06-27T02:47:09.811Z,19.5
2019-06-27T02:48:10.137Z,19.5
2019-06-27T02:49:09.481Z,19.5
2019-06-27T02:50:10.052Z,19.44
2019-06-27T02:51:09.471Z,19.44
2019-06-27T02:52:09.801Z,19.44
2019-06-27T02:53:10.112Z,19.44
2019-06-27T02:54:09.426Z,19.44
2019-06-27T02:55:09.907Z,19.37
2019-06-27T02:56:09.284Z,19.37
2019-06-27T02:57:09.530Z,19.37
2019-06-27T02:58:36.750Z,19.37
2019-06-27T02:59:10.043Z,19.37
2019-06-27T03:00:09.700Z,19.31
2019-06-27T03:01:09.690Z,19.31
2019-06-27T03:02:09.986Z,19.31
2019-06-27T03:03:09.313Z,19.31
2019-06-27T03:04:09.628Z,19.31
2019-06-27T03:05:10.179Z,19.25
2019-06-27T03:06:09.441Z,19.25
2019-06-27T03:07:09.773Z,19.25
2019-06-27T03:08:11.195Z,19.19
2019-06-27T03:09:09.637Z,19.19
2019-06-27T03:10:10.216Z,19.19
2019-06-27T03:11:09.499Z,19.19
2019-06-27T03:12:09.811Z,19.12
2019-06-27T03:13:10.137Z,19.12
2019-06-27T03:14:09.446Z,19.12
2019-06-27T03:15:09.813Z,19.12
2019-06-27T03:16:10.200Z,19.12
2019-06-27T03:17:09.522Z,19.12
2019-06-27T03:18:09.836Z,19.12
2019-06-27T03:19:10.098Z,19.06
2019-06-27T03:20:09.663Z,19
2019-06-27T03:21:09.965Z,19
2019-06-27T03:22:12.257Z,18.94
2019-06-27T03:23:09.554Z,18.87
2019-06-27T03:24:09.889Z,18.87
2019-06-27T03:25:09.383Z,18.87
2019-06-27T03:26:09.787Z,18.87
2019-06-27T03:27:10.203Z,18.87
2019-06-27T03:28:09.449Z,18.87
2019-06-27T03:29:09.692Z,18.81
2019-06-27T03:30:10.533Z,18.81
2019-06-27T03:31:09.997Z,18.81
2019-06-27T03:32:09.399Z,18.81
2019-06-27T03:33:09.842Z,18.81
2019-06-27T03:34:10.172Z,18.81
2019-06-27T03:35:09.859Z,18.81
2019-06-27T03:36:09.268Z,18.81
2019-06-27T03:37:09.670Z,18.81
2019-06-27T03:38:09.981Z,18.81
2019-06-27T03:39:09.376Z,18.81
2019-06-27T03:40:09.909Z,18.87
2019-06-27T03:41:09.242Z,18.87
2019-06-27T03:42:09.585Z,18.81
2019-06-27T03:43:09.963Z,18.87
2019-06-27T03:44:09.249Z,18.81
2019-06-27T03:45:13.651Z,18.81
2019-06-27T03:46:09.351Z,18.81
2019-06-27T03:47:09.721Z,18.81
2019-06-27T03:48:10.081Z,18.81
2019-06-27T03:49:09.345Z,18.87
2019-06-27T03:50:09.911Z,18.81
2019-06-27T03:51:09.204Z,18.81
2019-06-27T03:52:09.512Z,18.81
2019-06-27T03:53:09.848Z,18.81
2019-06-27T03:54:10.196Z,18.81
2019-06-27T03:55:09.662Z,18.81
2019-06-27T03:56:09.997Z,18.81
2019-06-27T03:57:09.330Z,18.75
2019-06-27T03:58:09.752Z,18.81
2019-06-27T03:59:18.983Z,18.81
2019-06-27T04:00:09.794Z,18.81
2019-06-27T04:01:09.784Z,18.75
2019-06-27T04:02:10.123Z,18.81
2019-06-27T04:03:09.505Z,18.81
2019-06-27T04:04:09.852Z,18.75
2019-06-27T04:05:10.377Z,18.75
2019-06-27T04:06:09.709Z,18.75
2019-06-27T04:07:09.964Z,18.75
2019-06-27T04:08:09.299Z,18.75
2019-06-27T04:09:09.712Z,18.75
2019-06-27T04:10:10.313Z,18.75
2019-06-27T04:11:09.657Z,18.75
2019-06-27T04:12:09.979Z,18.81
2019-06-27T04:13:09.315Z,18.81
2019-06-27T04:14:09.659Z,18.81
2019-06-27T04:15:10.114Z,18.81
2019-06-27T04:16:09.414Z,18.87
2019-06-27T04:17:09.763Z,18.87
2019-06-27T04:18:09.974Z,18.81
2019-06-27T04:19:09.330Z,18.81
2019-06-27T04:20:09.890Z,18.81
2019-06-27T04:21:09.323Z,18.81
2019-06-27T04:22:09.622Z,18.81
2019-06-27T04:23:09.894Z,18.81
2019-06-27T04:24:09.234Z,18.81
2019-06-27T04:25:09.691Z,18.75
2019-06-27T04:26:10.004Z,18.75
2019-06-27T04:27:09.350Z,18.75
2019-06-27T04:28:09.834Z,18.75
2019-06-27T04:29:10.302Z,18.69
2019-06-27T04:30:09.912Z,18.69
2019-06-27T04:31:09.294Z,18.75
2019-06-27T04:32:09.522Z,18.75
2019-06-27T04:33:09.910Z,18.75
2019-06-27T04:34:09.196Z,18.75
2019-06-27T04:35:09.659Z,18.75
2019-06-27T04:36:09.945Z,18.75
2019-06-27T04:37:09.290Z,18.75
2019-06-27T04:38:09.583Z,18.75
2019-06-27T04:39:09.931Z,18.81
2019-06-27T04:40:09.552Z,18.81
2019-06-27T04:41:09.828Z,18.75
2019-06-27T04:42:10.113Z,18.81
2019-06-27T04:43:12.232Z,18.81
2019-06-27T04:44:09.600Z,18.81
2019-06-27T04:45:10.114Z,18.81
2019-06-27T04:46:09.426Z,18.81
2019-06-27T04:47:09.695Z,18.81
2019-06-27T04:48:09.996Z,18.81
2019-06-27T04:49:15.126Z,18.81
2019-06-27T04:50:09.632Z,18.81
2019-06-27T04:51:09.997Z,18.81
2019-06-27T04:52:09.275Z,18.81
2019-06-27T04:53:09.549Z,18.81
2019-06-27T04:54:09.774Z,18.81
2019-06-27T04:55:10.472Z,18.81
2019-06-27T04:56:09.845Z,18.87
2019-06-27T04:57:10.149Z,18.81
2019-06-27T04:58:09.513Z,18.87
2019-06-27T04:59:09.760Z,18.81
2019-06-27T05:00:10.431Z,18.81
2019-06-27T05:01:09.757Z,18.81
2019-06-27T05:02:10.015Z,18.81
2019-06-27T05:03:09.316Z,18.75
2019-06-27T05:04:09.586Z,18.75
2019-06-27T05:05:10.048Z,18.69
2019-06-27T05:06:09.715Z,18.69
2019-06-27T05:07:09.977Z,18.62
2019-06-27T05:08:09.256Z,18.62
2019-06-27T05:09:09.755Z,18.62
2019-06-27T05:10:10.392Z,18.56
2019-06-27T05:11:10.419Z,18.56
2019-06-27T05:12:09.844Z,18.56
2019-06-27T05:13:11.467Z,18.62
2019-06-27T05:14:10.907Z,18.62
2019-06-27T05:15:09.437Z,18.62
2019-06-27T05:16:10.100Z,18.62
2019-06-27T05:17:09.422Z,18.62
2019-06-27T05:18:09.750Z,18.62
2019-06-27T05:19:13.324Z,18.56
2019-06-27T05:20:10.048Z,18.56
2019-06-27T05:21:09.380Z,18.5
2019-06-27T05:22:09.682Z,18.44
2019-06-27T05:23:09.987Z,18.37
2019-06-27T05:24:09.364Z,18.37
2019-06-27T05:25:12.963Z,18.31
2019-06-27T05:26:11.253Z,18.37
2019-06-27T05:27:09.721Z,18.37
2019-06-27T05:28:10.271Z,18.37
2019-06-27T05:29:09.584Z,18.37
2019-06-27T05:30:17.746Z,18.37
2019-06-27T05:31:10.082Z,18.37
2019-06-27T05:32:09.444Z,18.31
2019-06-27T05:33:09.775Z,18.31
2019-06-27T05:34:10.407Z,18.31
2019-06-27T05:35:10.043Z,18.31
2019-06-27T05:36:09.460Z,18.31
2019-06-27T05:37:09.807Z,18.25
2019-06-27T05:38:10.111Z,18.19
2019-06-27T05:39:09.864Z,18.19
2019-06-27T05:40:09.430Z,18.19
2019-06-27T05:41:10.185Z,18.19
2019-06-27T05:42:09.502Z,18.06
2019-06-27T05:43:09.805Z,18.12
2019-06-27T05:44:10.198Z,18.06
2019-06-27T05:45:09.875Z,18.06
2019-06-27T05:46:09.311Z,18.06
2019-06-27T05:47:09.595Z,18.06
2019-06-27T05:48:10.097Z,18.12
2019-06-27T05:49:09.364Z,18.06
2019-06-27T05:50:09.880Z,18.06
2019-06-27T05:51:09.300Z,18.06
2019-06-27T05:52:09.618Z,18.12
2019-06-27T05:53:10.178Z,18.12
2019-06-27T05:54:09.542Z,18.19
2019-06-27T05:55:10.469Z,18.19
2019-06-27T05:56:17.001Z,18.19
2019-06-27T05:57:09.304Z,18.12
2019-06-27T05:58:09.609Z,18.12
2019-06-27T05:59:09.922Z,18.12
2019-06-27T06:00:23.009Z,18.12
2019-06-27T06:01:11.363Z,18.12
2019-06-27T06:02:09.714Z,18.19
2019-06-27T06:03:10.094Z,18.19
2019-06-27T06:04:09.480Z,18.25
2019-06-27T06:05:09.977Z,18.25
2019-06-27T06:06:09.971Z,18.25
2019-06-27T06:07:09.287Z,18.25
2019-06-27T06:08:09.585Z,18.31
2019-06-27T06:09:09.963Z,18.37
2019-06-27T06:10:09.491Z,18.37
2019-06-27T06:11:09.892Z,18.44
2019-06-27T06:12:09.333Z,18.37
2019-06-27T06:13:11.682Z,18.44
2019-06-27T06:14:09.940Z,18.44
2019-06-27T06:15:09.392Z,18.44
2019-06-27T06:16:09.698Z,18.44
2019-06-27T06:17:10.070Z,18.5
2019-06-27T06:18:09.414Z,18.44
2019-06-27T06:19:09.773Z,18.44
2019-06-27T06:20:10.276Z,18.44
2019-06-27T06:21:09.636Z,18.44
2019-06-27T06:22:09.902Z,18.44
2019-06-27T06:23:09.220Z,18.44
2019-06-27T06:24:09.434Z,18.44
2019-06-27T06:25:09.897Z,18.44
2019-06-27T06:26:09.379Z,18.5
2019-06-27T06:27:09.699Z,18.56
2019-06-27T06:28:10.072Z,18.56
2019-06-27T06:29:09.354Z,18.56
2019-06-27T06:30:11.274Z,18.62
2019-06-27T06:31:09.696Z,18.62
2019-06-27T06:32:09.976Z,18.69
2019-06-27T06:33:10.298Z,18.62
2019-06-27T06:34:09.571Z,18.62
2019-06-27T06:35:10.309Z,18.69
2019-06-27T06:36:09.635Z,18.69
2019-06-27T06:37:14.744Z,18.69
2019-06-27T06:38:10.775Z,18.69
2019-06-27T06:39:10.561Z,18.69
2019-06-27T06:40:11.555Z,18.69
2019-06-27T06:41:15.267Z,18.62
2019-06-27T06:42:15.802Z,18.62
2019-06-27T06:43:11.048Z,18.62
2019-06-27T06:44:10.094Z,18.62
2019-06-27T06:45:10.380Z,18.62
2019-06-27T06:46:10.727Z,18.69
2019-06-27T06:47:10.648Z,18.69
2019-06-27T06:48:11.303Z,18.69
2019-06-27T06:49:17.890Z,18.69
2019-06-27T06:50:09.471Z,18.62
2019-06-27T06:51:09.727Z,18.69
2019-06-27T06:52:10.433Z,18.69
2019-06-27T06:53:09.668Z,18.75
2019-06-27T06:54:10.052Z,18.75
2019-06-27T06:55:09.469Z,18.69
2019-06-27T06:56:09.831Z,18.69
2019-06-27T06:57:10.159Z,18.69
2019-06-27T06:58:09.625Z,18.69
2019-06-27T06:59:10.325Z,18.69
2019-06-27T07:00:09.932Z,18.75
2019-06-27T07:01:09.324Z,18.75
2019-06-27T07:02:09.722Z,18.81
2019-06-27T07:03:10.066Z,18.81
2019-06-27T07:04:09.573Z,18.87
2019-06-27T07:05:10.186Z,18.87
2019-06-27T07:06:09.325Z,18.87
2019-06-27T07:07:12.890Z,18.81
2019-06-27T07:08:10.453Z,18.81
2019-06-27T07:09:10.164Z,18.75
2019-06-27T07:10:09.861Z,18.75
2019-06-27T07:11:09.488Z,18.81
2019-06-27T07:12:09.774Z,18.81
2019-06-27T07:13:10.063Z,18.81
2019-06-27T07:14:09.544Z,18.81
2019-06-27T07:15:09.973Z,18.75
2019-06-27T07:16:09.310Z,18.69
2019-06-27T07:17:09.630Z,18.62
2019-06-27T07:18:10.283Z,18.69
2019-06-27T07:19:09.759Z,18.69
2019-06-27T07:20:10.615Z,18.62
2019-06-27T07:21:09.978Z,18.62
2019-06-27T07:22:09.203Z,18.62
2019-06-27T07:23:09.592Z,18.62
2019-06-27T07:24:10.681Z,18.62
2019-06-27T07:25:11.066Z,18.56
2019-06-27T07:26:10.121Z,18.56
2019-06-27T07:27:09.532Z,18.56
2019-06-27T07:28:09.810Z,18.5
2019-06-27T07:29:10.142Z,18.5
2019-06-27T07:30:09.906Z,18.62
2019-06-27T07:31:23.975Z,18.69
2019-06-27T07:32:09.887Z,18.75
2019-06-27T07:33:12.298Z,18.75
2019-06-27T07:34:09.634Z,18.75
2019-06-27T07:35:10.104Z,18.81
2019-06-27T07:36:09.357Z,18.81
2019-06-27T07:37:09.618Z,18.94
2019-06-27T07:38:09.915Z,18.94
2019-06-27T07:39:09.360Z,18.94
2019-06-27T07:40:10.068Z,18.94
2019-06-27T07:41:09.594Z,18.87
2019-06-27T07:42:09.860Z,18.81
2019-06-27T07:43:10.148Z,18.94
2019-06-27T07:44:09.451Z,19
2019-06-27T07:45:10.051Z,19
2019-06-27T07:46:26.144Z,19.06
2019-06-27T07:47:09.526Z,19.06
2019-06-27T07:48:09.773Z,19
2019-06-27T07:49:09.973Z,19
2019-06-27T07:50:09.712Z,18.94
2019-06-27T07:51:10.093Z,18.94
2019-06-27T07:52:09.601Z,18.94
2019-06-27T07:53:10.013Z,18.87
2019-06-27T07:54:09.300Z,18.94
2019-06-27T07:55:09.803Z,18.94
2019-06-27T07:56:10.159Z,19
2019-06-27T07:57:09.965Z,19
2019-06-27T07:58:09.310Z,19.06
2019-06-27T07:59:09.565Z,19
2019-06-27T08:00:10.411Z,19.06
2019-06-27T08:01:10.016Z,19
2019-06-27T08:02:09.316Z,19
2019-06-27T08:03:09.628Z,18.94
2019-06-27T08:04:09.941Z,18.94
2019-06-27T08:05:09.957Z,18.94
2019-06-27T08:06:09.435Z,18.87
2019-06-27T08:07:09.734Z,18.94
2019-06-27T08:08:10.043Z,18.87
2019-06-27T08:09:09.685Z,18.94
2019-06-27T08:10:10.241Z,19
2019-06-27T08:11:09.602Z,19.06
2019-06-27T08:12:09.868Z,19.19
2019-06-27T08:13:10.135Z,19.25
2019-06-27T08:14:09.446Z,19.31
2019-06-27T08:15:09.924Z,19.37
2019-06-27T08:16:09.294Z,19.44
2019-06-27T08:17:09.661Z,19.5
2019-06-27T08:18:09.964Z,19.5
2019-06-27T08:19:09.261Z,19.5
2019-06-27T08:20:09.914Z,19.56
2019-06-27T08:21:09.409Z,19.56
2019-06-27T08:22:10.130Z,19.56
2019-06-27T08:23:09.547Z,19.56
2019-06-27T08:24:09.850Z,19.62
2019-06-27T08:25:10.364Z,19.69
2019-06-27T08:26:09.771Z,19.69
2019-06-27T08:27:10.090Z,19.69
2019-06-27T08:28:09.507Z,19.75
2019-06-27T08:29:09.880Z,19.81
2019-06-27T08:30:13.095Z,19.87
2019-06-27T08:31:09.493Z,19.94
2019-06-27T08:32:09.738Z,19.94
2019-06-27T08:33:10.019Z,19.94
2019-06-27T08:34:09.290Z,19.94
2019-06-27T08:35:09.742Z,19.94
2019-06-27T08:36:10.109Z,19.94
2019-06-27T08:37:09.380Z,19.94
2019-06-27T08:38:09.726Z,19.94
2019-06-27T08:39:10.179Z,20
2019-06-27T08:40:09.789Z,20.06
2019-06-27T08:41:12.999Z,20.06
2019-06-27T08:42:10.152Z,20.12
2019-06-27T08:43:09.407Z,20.19
2019-06-27T08:44:09.703Z,20.19
2019-06-27T08:45:10.089Z,20.25
2019-06-27T08:46:20.806Z,20.25
2019-06-27T08:47:20.088Z,20.31
2019-06-27T08:48:18.674Z,20.25
2019-06-27T08:49:19.967Z,20.31
2019-06-27T08:50:58.814Z,20.25
2019-06-27T08:51:34.072Z,20.25
2019-06-27T08:52:09.371Z,20.25
2019-06-27T08:53:09.601Z,20.31
2019-06-27T08:54:09.834Z,20.37
2019-06-27T08:55:10.351Z,20.37
2019-06-27T08:56:10.780Z,20.44
2019-06-27T08:57:10.378Z,20.5
2019-06-27T08:58:10.430Z,20.5
2019-06-27T08:59:09.960Z,20.5
2019-06-27T09:00:09.658Z,20.56
2019-06-27T09:01:09.649Z,20.56
2019-06-27T09:02:15.814Z,20.62
2019-06-27T09:03:10.481Z,20.62
2019-06-27T09:04:10.136Z,20.62
2019-06-27T09:05:10.003Z,20.62
2019-06-27T09:06:09.334Z,20.62
2019-06-27T09:07:09.641Z,20.62
2019-06-27T09:08:10.511Z,20.62
2019-06-27T09:09:09.874Z,20.56
2019-06-27T09:10:10.466Z,20.62
2019-06-27T09:11:10.242Z,20.62
2019-06-27T09:12:10.254Z,20.62
2019-06-27T09:13:10.244Z,20.62
2019-06-27T09:14:09.570Z,20.62
2019-06-27T09:15:10.211Z,20.69
2019-06-27T09:16:09.514Z,20.69
2019-06-27T09:17:09.860Z,20.69
2019-06-27T09:18:10.153Z,20.75
2019-06-27T09:19:09.501Z,20.81
2019-06-27T09:20:10.486Z,20.87
2019-06-27T09:21:10.060Z,20.81
2019-06-27T09:22:09.722Z,20.87
2019-06-27T09:23:10.229Z,20.87
2019-06-27T09:24:09.741Z,20.94
2019-06-27T09:25:10.298Z,21
2019-06-27T09:26:09.670Z,21
2019-06-27T09:27:10.586Z,21
2019-06-27T09:28:09.924Z,21
2019-06-27T09:29:09.309Z,21
2019-06-27T09:30:10.026Z,21
2019-06-27T09:31:09.418Z,21
2019-06-27T09:32:26.405Z,21
2019-06-27T09:33:09.801Z,21.06
2019-06-27T09:34:10.078Z,21.06
2019-06-27T09:35:09.539Z,21.12
2019-06-27T09:36:09.855Z,21.12
2019-06-27T09:37:10.162Z,21.12
2019-06-27T09:38:09.492Z,21.19
2019-06-27T09:39:09.923Z,21.19
2019-06-27T09:40:09.484Z,21.19
2019-06-27T09:41:09.784Z,21.19
2019-06-27T09:42:10.018Z,21.19
2019-06-27T09:43:09.365Z,21.19
2019-06-27T09:44:09.662Z,21.19
2019-06-27T09:45:10.072Z,21.25
2019-06-27T09:46:09.406Z,21.25
2019-06-27T09:47:09.738Z,21.31
2019-06-27T09:48:10.073Z,21.31
2019-06-27T09:49:09.397Z,21.31
2019-06-27T09:50:10.145Z,21.31
2019-06-27T09:51:09.425Z,21.37
2019-06-27T09:52:09.696Z,21.37
2019-06-27T09:53:10.061Z,21.37
2019-06-27T09:54:09.355Z,21.44
2019-06-27T09:55:09.776Z,21.5
2019-06-27T09:56:10.096Z,21.56
2019-06-27T09:57:09.455Z,21.56
2019-06-27T09:58:09.847Z,21.62
2019-06-27T09:59:10.089Z,21.69
2019-06-27T10:00:09.567Z,21.69
2019-06-27T10:01:12.525Z,21.69
2019-06-27T10:02:09.850Z,21.75
2019-06-27T10:03:10.182Z,21.69
2019-06-27T10:04:09.417Z,21.69
2019-06-27T10:05:10.045Z,21.69
2019-06-27T10:06:09.498Z,21.75
2019-06-27T10:07:09.771Z,21.75
2019-06-27T10:08:10.150Z,21.81
2019-06-27T10:09:09.631Z,21.81
2019-06-27T10:10:10.234Z,21.81
2019-06-27T10:11:09.573Z,21.87
2019-06-27T10:12:09.820Z,21.87
2019-06-27T10:13:10.224Z,21.87
2019-06-27T10:14:09.473Z,21.81
2019-06-27T10:15:10.009Z,21.87
2019-06-27T10:16:09.288Z,21.87
2019-06-27T10:17:09.612Z,21.94
2019-06-27T10:18:09.979Z,22
2019-06-27T10:19:09.251Z,22
2019-06-27T10:20:09.738Z,22.06
2019-06-27T10:21:10.083Z,22.06
2019-06-27T10:22:09.418Z,22.12
2019-06-27T10:23:09.866Z,22.12
2019-06-27T10:24:10.160Z,22.19
2019-06-27T10:25:09.658Z,22.25
2019-06-27T10:26:09.947Z,22.25
2019-06-27T10:27:09.269Z,22.31
2019-06-27T10:28:09.543Z,22.31
2019-06-27T10:29:09.846Z,22.37
2019-06-27T10:30:10.534Z,22.37
2019-06-27T10:31:09.903Z,22.37
2019-06-27T10:32:09.209Z,22.37
2019-06-27T10:33:09.490Z,22.44
2019-06-27T10:34:09.905Z,22.5
2019-06-27T10:35:09.369Z,22.5
2019-06-27T10:36:09.541Z,22.5
2019-06-27T10:37:09.802Z,22.5
2019-06-27T10:38:10.085Z,22.56
2019-06-27T10:39:09.861Z,22.62
2019-06-27T10:40:10.471Z,22.69
2019-06-27T10:41:09.790Z,22.62
2019-06-27T10:42:10.119Z,22.69
2019-06-27T10:43:09.432Z,22.75
2019-06-27T10:44:09.773Z,22.81
2019-06-27T10:45:10.223Z,22.94
2019-06-27T10:46:09.513Z,22.94
2019-06-27T10:47:09.798Z,23
2019-06-27T10:48:10.226Z,23.06
2019-06-27T10:49:09.535Z,23.12
2019-06-27T10:50:10.144Z,23.19
2019-06-27T10:51:09.456Z,23.25
2019-06-27T10:52:09.795Z,23.37
2019-06-27T10:53:10.229Z,23.44
2019-06-27T10:54:09.549Z,23.5
2019-06-27T10:55:10.066Z,23.5
2019-06-27T10:56:09.374Z,23.56
2019-06-27T10:57:09.660Z,23.62
2019-06-27T10:58:10.027Z,23.62
2019-06-27T10:59:09.361Z,23.69
2019-06-27T11:00:10.250Z,23.75
2019-06-27T11:01:09.647Z,23.81
2019-06-27T11:02:10.024Z,23.87
2019-06-27T11:03:21.368Z,23.94
2019-06-27T11:04:09.710Z,24
2019-06-27T11:05:10.198Z,24.12
2019-06-27T11:06:09.530Z,24.25
2019-06-27T11:07:09.778Z,24.25
2019-06-27T11:08:10.090Z,24.31
2019-06-27T11:09:09.527Z,24.37
2019-06-27T11:10:10.081Z,24.37
2019-06-27T11:11:09.440Z,24.37
2019-06-27T11:12:09.746Z,24.37
2019-06-27T11:13:10.083Z,24.44
2019-06-27T11:14:09.387Z,24.44
2019-06-27T11:15:09.882Z,24.37
2019-06-27T11:16:09.549Z,24.44
2019-06-27T11:17:09.848Z,24.44
2019-06-27T11:18:10.153Z,24.5
2019-06-27T11:19:09.432Z,24.56
2019-06-27T11:20:10.369Z,24.62
2019-06-27T11:21:09.691Z,24.69
2019-06-27T11:22:10.008Z,24.75
2019-06-27T11:23:09.427Z,24.87
2019-06-27T11:24:09.779Z,24.94
2019-06-27T11:25:10.294Z,25
2019-06-27T11:26:12.869Z,25
2019-06-27T11:27:10.186Z,25
2019-06-27T11:28:12.277Z,25
2019-06-27T11:29:10.871Z,24.94
2019-06-27T11:30:11.069Z,25
2019-06-27T11:31:09.588Z,24.87
2019-06-27T11:32:09.867Z,24.81
2019-06-27T11:33:10.232Z,24.81
2019-06-27T11:34:09.472Z,24.81
2019-06-27T11:35:10.046Z,24.87
2019-06-27T11:36:09.580Z,24.87
2019-06-27T11:37:09.898Z,24.94
2019-06-27T11:38:09.194Z,25.06
2019-06-27T11:39:09.578Z,25.12
2019-06-27T11:40:13.921Z,25.19
2019-06-27T11:41:09.220Z,25.19
2019-06-27T11:42:09.578Z,25.25
2019-06-27T11:43:09.897Z,25.31
2019-06-27T11:44:09.160Z,25.31
2019-06-27T11:45:09.622Z,25.31
2019-06-27T11:46:13.410Z,25.37
2019-06-27T11:47:09.696Z,25.37
2019-06-27T11:48:10.051Z,25.37
2019-06-27T11:49:09.400Z,25.31
2019-06-27T11:50:10.788Z,25.31
2019-06-27T11:51:10.109Z,25.37
2019-06-27T11:52:09.494Z,25.37
2019-06-27T11:53:09.813Z,25.44
2019-06-27T11:54:10.050Z,25.44
2019-06-27T11:55:09.587Z,25.5
2019-06-27T11:56:09.942Z,25.56
2019-06-27T11:57:09.287Z,25.62
2019-06-27T11:58:09.554Z,25.69
2019-06-27T11:59:09.883Z,25.69
2019-06-27T12:00:09.445Z,25.75
2019-06-27T12:01:09.585Z,25.75
2019-06-27T12:02:09.909Z,25.75
2019-06-27T12:03:09.215Z,25.81
2019-06-27T12:04:09.485Z,25.81
2019-06-27T12:05:10.074Z,25.81
2019-06-27T12:06:09.419Z,25.94
2019-06-27T12:07:09.710Z,26
2019-06-27T12:08:14.243Z,26
2019-06-27T12:09:09.740Z,26.06
2019-06-27T12:10:10.278Z,26.06
2019-06-27T12:11:09.702Z,26.06
2019-06-27T12:12:10.032Z,26.06
2019-06-27T12:13:09.316Z,26.12
2019-06-27T12:14:09.654Z,26.19
2019-06-27T12:15:10.183Z,26.19
2019-06-27T12:16:09.519Z,26.19
2019-06-27T12:17:09.838Z,26.25
2019-06-27T12:18:10.125Z,26.25
2019-06-27T12:19:09.471Z,26.31
2019-06-27T12:20:10.055Z,26.31
2019-06-27T12:21:12.598Z,26.31
2019-06-27T12:22:09.894Z,26.31
2019-06-27T12:23:09.204Z,26.25
2019-06-27T12:24:09.532Z,26.25
2019-06-27T12:25:10.017Z,26.25
2019-06-27T12:26:09.628Z,26.25
2019-06-27T12:27:09.923Z,26.25
2019-06-27T12:28:09.235Z,26.25
2019-06-27T12:29:09.658Z,26.25
2019-06-27T12:30:10.349Z,26.25
2019-06-27T12:31:26.308Z,26.25
2019-06-27T12:32:09.622Z,26.25
2019-06-27T12:33:09.952Z,26.25
2019-06-27T12:34:13.808Z,26.25
2019-06-27T12:35:10.227Z,26.31
2019-06-27T12:36:13.101Z,26.31
2019-06-27T12:37:10.418Z,26.31
2019-06-27T12:38:09.743Z,26.31
2019-06-27T12:39:10.155Z,26.31
2019-06-27T12:40:09.673Z,26.31
2019-06-27T12:41:10.055Z,26.31
2019-06-27T12:42:09.369Z,26.31
2019-06-27T12:43:09.643Z,26.31
2019-06-27T12:44:09.911Z,26.31
2019-06-27T12:45:09.348Z,26.25
2019-06-27T12:46:09.930Z,26.31
2019-06-27T12:47:09.366Z,26.31
2019-06-27T12:48:13.527Z,26.31
2019-06-27T12:49:09.823Z,26.31
2019-06-27T12:50:10.595Z,26.37
2019-06-27T12:51:09.998Z,26.37
2019-06-27T12:52:09.314Z,26.37
2019-06-27T12:53:09.648Z,26.31
2019-06-27T12:54:09.944Z,26.37
2019-06-27T12:55:09.927Z,26.37
2019-06-27T12:56:09.794Z,26.37
2019-06-27T12:57:10.774Z,26.37
2019-06-27T12:58:10.642Z,26.31